Time;durP1;ratioP1;P1;durP2;ratioP2;P2;SDS_P1;SDS_P2;PMS_P1;PMS_P2;Temp;Humidity;BMP_temperature;BMP_pressure;BME280_temperature;BME280_humidity;BME280_pressure;Samples;Min_cycle;Max_cycle;Signal;HPM_P1;HPM_P2
2023/12/03 00:02:13;;;;;;;29.60;9.07;;;;;;;;;;6097101;23;19994;-82
2023/12/03 00:04:39;;;;;;;24.17;7.00;;;;;;;;;;6097064;23;20081;-81
2023/12/03 00:07:05;;;;;;;37.80;10.63;;;;;;;;;;6099117;23;19998;-81
2023/12/03 00:09:31;;;;;;;31.33;9.88;;;;;;;;;;6097053;23;20006;-82
2023/12/03 00:11:56;;;;;;;26.27;7.70;;;;;;;;;;6097541;23;20033;-80
2023/12/03 00:14:21;;;;;;;103.45;54.00;;;;;;;;;;6095718;23;20002;-82
2023/12/03 00:16:48;;;;;;;28.10;7.93;;;;;;;;;;6095942;23;19998;-82
2023/12/03 00:19:13;;;;;;;57.60;27.42;;;;;;;;;;6096980;23;19998;-83
2023/12/03 00:21:39;;;;;;;114.40;60.58;;;;;;;;;;6096949;23;20064;-81
2023/12/03 00:24:04;;;;;;;128.00;57.55;;;;;;;;;;6096650;23;19998;-81
2023/12/03 00:26:30;;;;;;;115.55;58.28;;;;;;;;;;6096024;23;20044;-81
2023/12/03 00:28:55;;;;;;;118.82;60.85;;;;;;;;;;6095958;23;20022;-83
2023/12/03 00:31:20;;;;;;;90.30;45.95;;;;;;;;;;6095944;23;20010;-81
2023/12/03 00:33:46;;;;;;;46.35;22.33;;;;;;;;;;6121553;23;20013;-82
2023/12/03 00:36:11;;;;;;;25.42;10.23;;;;;;;;;;6095199;23;20052;-82
2023/12/03 00:38:36;;;;;;;24.77;7.32;;;;;;;;;;6122280;23;19998;-81
2023/12/03 00:41:02;;;;;;;29.27;11.63;;;;;;;;;;6120929;23;20010;-82
2023/12/03 00:43:27;;;;;;;37.45;16.27;;;;;;;;;;6095809;23;19998;-81
2023/12/03 00:45:53;;;;;;;58.10;29.92;;;;;;;;;;6095575;23;20383;-81
2023/12/03 00:48:18;;;;;;;66.57;30.73;;;;;;;;;;6121870;23;20078;-81
2023/12/03 00:50:44;;;;;;;151.20;73.70;;;;;;;;;;6095736;23;20033;-81
2023/12/03 00:53:09;;;;;;;17.92;6.47;;;;;;;;;;6124274;23;19998;-81
2023/12/03 00:55:34;;;;;;;22.02;9.18;;;;;;;;;;6095606;23;20009;-81
2023/12/03 00:58:01;;;;;;;25.05;10.90;;;;;;;;;;6095663;23;20346;-83
2023/12/03 01:00:27;;;;;;;18.38;8.20;;;;;;;;;;6098341;23;20081;-85
2023/12/03 01:02:52;;;;;;;18.75;7.45;;;;;;;;;;6098035;23;20320;-82
2023/12/03 01:05:17;;;;;;;19.05;9.25;;;;;;;;;;6096034;23;20048;-82
2023/12/03 01:07:42;;;;;;;22.05;10.98;;;;;;;;;;6096120;23;19998;-84
2023/12/03 01:10:08;;;;;;;26.73;12.45;;;;;;;;;;6096232;23;19998;-83
2023/12/03 01:12:33;;;;;;;28.27;13.65;;;;;;;;;;6096989;23;20006;-81
2023/12/03 01:14:58;;;;;;;23.73;10.60;;;;;;;;;;6096681;23;20465;-84
2023/12/03 01:17:24;;;;;;;26.77;12.00;;;;;;;;;;6095747;23;19998;-82
2023/12/03 01:19:49;;;;;;;21.67;10.88;;;;;;;;;;6096643;23;20006;-83
2023/12/03 01:22:14;;;;;;;22.25;11.77;;;;;;;;;;6096966;23;20059;-82
2023/12/03 01:24:40;;;;;;;26.05;11.45;;;;;;;;;;6095555;23;20002;-83
2023/12/03 01:27:07;;;;;;;23.17;10.55;;;;;;;;;;6120918;23;20069;-83
2023/12/03 01:29:32;;;;;;;17.27;9.80;;;;;;;;;;6095717;23;20009;-83
2023/12/03 01:31:58;;;;;;;19.30;9.75;;;;;;;;;;6095890;23;20010;-81
2023/12/03 01:34:23;;;;;;;31.10;15.40;;;;;;;;;;6121245;23;19998;-81
2023/12/03 01:36:49;;;;;;;19.38;9.45;;;;;;;;;;6095455;23;20006;-81
2023/12/03 01:39:14;;;;;;;21.08;9.23;;;;;;;;;;6095846;23;20399;-81
2023/12/03 01:41:39;;;;;;;17.48;8.65;;;;;;;;;;6095132;23;20018;-82
2023/12/03 01:44:06;;;;;;;25.95;9.55;;;;;;;;;;6121917;23;20021;-81
2023/12/03 01:46:31;;;;;;;17.35;8.20;;;;;;;;;;6095127;23;20442;-82
2023/12/03 01:48:57;;;;;;;16.10;8.63;;;;;;;;;;6095622;23;20006;-82
2023/12/03 01:51:22;;;;;;;47.00;26.95;;;;;;;;;;6121391;23;19998;-81
2023/12/03 01:53:48;;;;;;;42.92;22.35;;;;;;;;;;6095563;23;20047;-81
2023/12/03 01:56:14;;;;;;;29.40;16.83;;;;;;;;;;6095339;23;20077;-83
2023/12/03 01:58:40;;;;;;;33.88;20.45;;;;;;;;;;6121627;23;20061;-81
2023/12/03 02:01:06;;;;;;;15.07;8.27;;;;;;;;;;6095624;23;20050;-82
2023/12/03 02:03:31;;;;;;;13.45;7.22;;;;;;;;;;6095436;23;20077;-81
2023/12/03 02:06:03;;;;;;;14.27;7.82;;;;;;;;;;6095415;23;20081;-81
2023/12/03 02:08:28;;;;;;;11.32;5.68;;;;;;;;;;6095306;23;20102;-82
2023/12/03 02:10:54;;;;;;;11.60;5.40;;;;;;;;;;6121935;23;20001;-80
2023/12/03 02:13:20;;;;;;;11.88;5.30;;;;;;;;;;6095653;23;20030;-83
2023/12/03 02:15:45;;;;;;;10.77;5.88;;;;;;;;;;6094571;23;20328;-81
2023/12/03 02:18:11;;;;;;;37.45;24.10;;;;;;;;;;6094726;23;20394;-82
2023/12/03 02:20:36;;;;;;;34.17;22.55;;;;;;;;;;6070038;23;20040;-82
2023/12/03 02:23:02;;;;;;;37.67;22.98;;;;;;;;;;6094492;23;20002;-82
2023/12/03 02:25:27;;;;;;;38.15;25.80;;;;;;;;;;6095106;23;20422;-85
2023/12/03 02:27:53;;;;;;;22.77;12.80;;;;;;;;;;6122151;23;20478;-83
2023/12/03 02:30:18;;;;;;;71.82;33.55;;;;;;;;;;6121332;23;20002;-81
2023/12/03 02:32:43;;;;;;;26.92;14.70;;;;;;;;;;6094934;23;20005;-82
2023/12/03 02:35:09;;;;;;;17.67;12.48;;;;;;;;;;6121430;23;20342;-82
2023/12/03 02:37:34;;;;;;;24.77;14.77;;;;;;;;;;6095879;23;19998;-82
2023/12/03 02:39:59;;;;;;;19.20;12.63;;;;;;;;;;6105198;23;20006;-81
2023/12/03 02:42:25;;;;;;;31.73;21.10;;;;;;;;;;6131918;23;20033;-82
2023/12/03 02:44:51;;;;;;;60.90;35.97;;;;;;;;;;6099665;23;20005;-82
2023/12/03 02:47:16;;;;;;;24.65;15.82;;;;;;;;;;6099227;23;20022;-82
2023/12/03 02:49:41;;;;;;;31.45;17.27;;;;;;;;;;6099936;23;20009;-84
2023/12/03 02:52:07;;;;;;;25.17;16.05;;;;;;;;;;6094341;23;20093;-83
2023/12/03 02:54:32;;;;;;;12.80;10.00;;;;;;;;;;6095184;23;20081;-83
2023/12/03 02:56:57;;;;;;;21.25;13.85;;;;;;;;;;6094093;23;20088;-82
2023/12/03 02:59:23;;;;;;;100.82;50.33;;;;;;;;;;6070685;23;20450;-82
2023/12/03 03:01:48;;;;;;;38.50;24.48;;;;;;;;;;6093971;23;20025;-82
2023/12/03 03:04:14;;;;;;;30.38;20.08;;;;;;;;;;6120503;23;20068;-82
2023/12/03 03:06:39;;;;;;;27.90;21.27;;;;;;;;;;6094341;23;20026;-82
2023/12/03 03:09:04;;;;;;;31.92;23.00;;;;;;;;;;6094212;23;20005;-82
2023/12/03 03:11:30;;;;;;;33.85;23.95;;;;;;;;;;6120110;23;20349;-82
2023/12/03 03:13:55;;;;;;;32.33;22.98;;;;;;;;;;6094316;23;19997;-82
2023/12/03 03:16:24;;;;;;;26.10;18.50;;;;;;;;;;6093779;23;20006;-83
2023/12/03 03:18:49;;;;;;;;;;;;;;;;;;6095106;23;20453;-82
2023/12/03 03:21:15;;;;;;;13.13;9.80;;;;;;;;;;6121253;23;19905;-82
2023/12/03 03:23:40;;;;;;;15.80;11.18;;;;;;;;;;6120140;23;20002;-82
2023/12/03 03:26:05;;;;;;;17.77;12.95;;;;;;;;;;6094552;23;20100;-82
2023/12/03 03:28:31;;;;;;;11.05;8.50;;;;;;;;;;6121201;23;19994;-80
2023/12/03 03:30:58;;;;;;;10.98;8.23;;;;;;;;;;6095650;23;20446;-81
2023/12/03 03:33:23;;;;;;;24.95;15.40;;;;;;;;;;6121496;23;19998;-82
2023/12/03 03:35:49;;;;;;;26.27;15.25;;;;;;;;;;6095143;23;20009;-80
2023/12/03 03:38:14;;;;;;;21.65;14.25;;;;;;;;;;6094897;23;20002;-80
2023/12/03 03:40:39;;;;;;;25.45;18.80;;;;;;;;;;6090442;23;20085;-81
2023/12/03 03:43:05;;;;;;;24.55;19.00;;;;;;;;;;6093536;23;20502;-81
2023/12/03 03:45:30;;;;;;;16.85;12.55;;;;;;;;;;6092927;23;19996;-81
2023/12/03 03:47:55;;;;;;;19.88;13.60;;;;;;;;;;6091664;23;19999;-80
2023/12/03 03:50:21;;;;;;;20.88;14.75;;;;;;;;;;6091181;23;20014;-80
2023/12/03 03:52:46;;;;;;;34.30;25.67;;;;;;;;;;6091413;23;20045;-81
2023/12/03 03:55:12;;;;;;;19.17;16.77;;;;;;;;;;6091106;23;20006;-80
2023/12/03 03:57:37;;;;;;;52.28;44.22;;;;;;;;;;6090284;23;20010;-81
2023/12/03 04:00:03;;;;;;;17.02;13.20;;;;;;;;;;6092343;23;20009;-80
2023/12/03 04:02:28;;;;;;;25.23;20.52;;;;;;;;;;6091218;23;19998;-80
2023/12/03 04:04:54;;;;;;;15.52;12.18;;;;;;;;;;6091155;23;19994;-80
2023/12/03 04:07:19;;;;;;;12.98;9.55;;;;;;;;;;6090920;23;20002;-81
2023/12/03 04:09:45;;;;;;;13.25;9.25;;;;;;;;;;6092157;23;20007;-80
2023/12/03 04:12:10;;;;;;;16.40;10.38;;;;;;;;;;6091471;23;20003;-80
2023/12/03 04:14:36;;;;;;;13.25;9.05;;;;;;;;;;6093057;23;20025;-80
2023/12/03 04:17:01;;;;;;;15.80;11.38;;;;;;;;;;6091324;23;20016;-80
2023/12/03 04:19:26;;;;;;;15.68;11.70;;;;;;;;;;6091716;23;20675;-81
2023/12/03 04:21:51;;;;;;;14.77;11.57;;;;;;;;;;6092157;23;20057;-80
2023/12/03 04:24:17;;;;;;;15.13;10.43;;;;;;;;;;6093490;23;20057;-80
2023/12/03 04:26:45;;;;;;;14.27;10.70;;;;;;;;;;6092453;23;20474;-81
2023/12/03 04:29:10;;;;;;;14.25;11.80;;;;;;;;;;6092429;23;20021;-79
2023/12/03 04:31:35;;;;;;;19.98;12.02;;;;;;;;;;6092847;23;20003;-80
2023/12/03 04:34:00;;;;;;;16.38;11.50;;;;;;;;;;6090601;23;20427;-79
2023/12/03 04:36:29;;;;;;;16.30;12.30;;;;;;;;;;6090731;23;20065;-80
2023/12/03 04:38:54;;;;;;;16.77;11.60;;;;;;;;;;6091407;23;20093;-80
2023/12/03 04:41:20;;;;;;;17.27;13.45;;;;;;;;;;6091048;23;20046;-81
2023/12/03 04:43:46;;;;;;;81.15;38.78;;;;;;;;;;6091610;23;20002;-81
2023/12/03 04:46:12;;;;;;;244.32;100.03;;;;;;;;;;6092476;23;20021;-80
2023/12/03 04:48:39;;;;;;;542.67;245.40;;;;;;;;;;6091748;23;20570;-80
2023/12/03 04:51:04;;;;;;;113.25;52.28;;;;;;;;;;6090989;23;20013;-80
2023/12/03 04:53:29;;;;;;;444.95;168.68;;;;;;;;;;6090386;23;20077;-80
2023/12/03 04:55:55;;;;;;;294.05;99.28;;;;;;;;;;6092437;23;20379;-82
2023/12/03 04:58:20;;;;;;;251.13;94.20;;;;;;;;;;6092295;23;20077;-80
2023/12/03 05:00:45;;;;;;;178.95;96.10;;;;;;;;;;6091073;23;20006;-79
2023/12/03 05:03:11;;;;;;;202.68;95.75;;;;;;;;;;6090422;23;20005;-79
2023/12/03 05:05:36;;;;;;;164.68;79.53;;;;;;;;;;6092226;23;20002;-81
2023/12/03 05:08:01;;;;;;;299.40;122.75;;;;;;;;;;6090696;23;19999;-80
2023/12/03 05:10:29;;;;;;;256.42;119.40;;;;;;;;;;6090946;23;20010;-80
2023/12/03 05:12:54;;;;;;;256.13;100.05;;;;;;;;;;6092588;23;20014;-80
2023/12/03 05:15:19;;;;;;;31.98;22.58;;;;;;;;;;6092836;23;20097;-81
2023/12/03 05:17:45;;;;;;;171.25;92.65;;;;;;;;;;6090490;23;20383;-80
2023/12/03 05:20:10;;;;;;;132.10;67.22;;;;;;;;;;6094602;23;20009;-79
2023/12/03 05:22:35;;;;;;;158.32;70.25;;;;;;;;;;6090414;23;20006;-80
2023/12/03 05:25:01;;;;;;;192.75;80.50;;;;;;;;;;6094110;23;20029;-79
2023/12/03 05:27:26;;;;;;;68.30;38.15;;;;;;;;;;6090932;23;20085;-81
2023/12/03 05:29:51;;;;;;;28.25;19.00;;;;;;;;;;6092813;23;19999;-80
2023/12/03 05:32:17;;;;;;;21.83;18.90;;;;;;;;;;6090997;23;20431;-80
2023/12/03 05:34:45;;;;;;;68.68;38.15;;;;;;;;;;6091686;23;20006;-81
2023/12/03 05:37:11;;;;;;;89.20;53.90;;;;;;;;;;6090681;23;20277;-80
2023/12/03 05:39:39;;;;;;;65.05;37.83;;;;;;;;;;6092140;23;20416;-81
2023/12/03 05:42:05;;;;;;;92.25;60.58;;;;;;;;;;6118379;23;20024;-81
2023/12/03 05:44:30;;;;;;;55.90;34.83;;;;;;;;;;6095944;23;20407;-80
2023/12/03 05:46:55;;;;;;;47.40;34.63;;;;;;;;;;6096295;23;20006;-81
2023/12/03 05:49:21;;;;;;;39.67;31.13;;;;;;;;;;6095466;23;20001;-80
2023/12/03 05:51:46;;;;;;;56.05;34.47;;;;;;;;;;6096220;23;19993;-80
2023/12/03 05:54:12;;;;;;;46.60;26.65;;;;;;;;;;6122426;23;19994;-80
2023/12/03 05:56:37;;;;;;;245.70;95.10;;;;;;;;;;6094838;23;20025;-80
2023/12/03 05:59:02;;;;;;;29.83;21.30;;;;;;;;;;6122397;23;20001;-81
2023/12/03 06:01:28;;;;;;;123.95;61.85;;;;;;;;;;6096459;23;20089;-81
2023/12/03 06:03:53;;;;;;;80.32;44.58;;;;;;;;;;6096549;23;20511;-80
2023/12/03 06:06:18;;;;;;;114.55;65.40;;;;;;;;;;6122772;23;19993;-80
2023/12/03 06:08:44;;;;;;;36.08;26.42;;;;;;;;;;6124076;23;20374;-80
2023/12/03 06:11:09;;;;;;;30.98;25.48;;;;;;;;;;6095961;23;20028;-80
2023/12/03 06:13:35;;;;;;;40.05;28.63;;;;;;;;;;6121727;23;20006;-79
2023/12/03 06:16:00;;;;;;;29.52;22.02;;;;;;;;;;6096705;23;20335;-80
2023/12/03 06:18:27;;;;;;;60.17;39.40;;;;;;;;;;6123185;23;20001;-80
2023/12/03 06:20:53;;;;;;;47.97;33.03;;;;;;;;;;6123045;23;20002;-80
2023/12/03 06:23:18;;;;;;;25.60;21.45;;;;;;;;;;6098103;23;20057;-79
2023/12/03 06:25:43;;;;;;;37.15;28.42;;;;;;;;;;6122095;23;20048;-79
2023/12/03 06:28:09;;;;;;;65.63;38.00;;;;;;;;;;6096201;23;20081;-80
2023/12/03 06:30:35;;;;;;;78.00;48.10;;;;;;;;;;6088169;23;20026;-80
2023/12/03 06:33:01;;;;;;;23.92;20.15;;;;;;;;;;6064550;23;20013;-79
2023/12/03 06:35:27;;;;;;;20.63;18.35;;;;;;;;;;6064726;23;20526;-79
2023/12/03 06:37:52;;;;;;;22.25;19.13;;;;;;;;;;6088230;23;20034;-80
2023/12/03 06:40:17;;;;;;;34.08;23.05;;;;;;;;;;6063924;23;20030;-80
2023/12/03 06:42:43;;;;;;;31.05;22.75;;;;;;;;;;6063929;23;20109;-79
2023/12/03 06:45:08;;;;;;;32.70;23.08;;;;;;;;;;6064484;23;20002;-79
2023/12/03 06:47:34;;;;;;;304.25;130.20;;;;;;;;;;6063834;23;20006;-80
2023/12/03 06:49:59;;;;;;;237.70;92.68;;;;;;;;;;6088401;23;20026;-79
2023/12/03 06:52:24;;;;;;;636.45;290.75;;;;;;;;;;6040646;23;20007;-82
2023/12/03 06:54:49;;;;;;;47.47;28.63;;;;;;;;;;6064025;23;20029;-79
2023/12/03 06:57:15;;;;;;;236.82;93.43;;;;;;;;;;6063690;23;20006;-80
2023/12/03 06:59:40;;;;;;;97.25;51.47;;;;;;;;;;6087981;23;20011;-79
2023/12/03 07:02:05;;;;;;;35.75;26.67;;;;;;;;;;6085732;23;19994;-79
2023/12/03 07:04:32;;;;;;;27.52;20.60;;;;;;;;;;6120227;23;20022;-79
2023/12/03 07:06:57;;;;;;;77.25;48.97;;;;;;;;;;6094541;23;20006;-79
2023/12/03 07:09:22;;;;;;;25.00;17.80;;;;;;;;;;6094517;23;20493;-79
2023/12/03 07:11:48;;;;;;;102.85;77.07;;;;;;;;;;6093207;23;19998;-79
2023/12/03 07:14:14;;;;;;;32.00;26.00;;;;;;;;;;6120414;23;19994;-79
2023/12/03 07:16:39;;;;;;;26.90;19.27;;;;;;;;;;6121742;23;20141;-80
2023/12/03 07:19:05;;;;;;;30.98;22.05;;;;;;;;;;6122140;23;19990;-79
2023/12/03 07:21:30;;;;;;;17.92;15.02;;;;;;;;;;6096365;23;19998;-81
2023/12/03 07:23:55;;;;;;;23.02;17.02;;;;;;;;;;6122236;23;20053;-80
2023/12/03 07:26:21;;;;;;;19.52;16.23;;;;;;;;;;6095681;23;20461;-80
2023/12/03 07:28:47;;;;;;;25.73;18.70;;;;;;;;;;6121837;23;19994;-80
2023/12/03 07:31:12;;;;;;;114.78;74.32;;;;;;;;;;6096197;23;20448;-79
2023/12/03 07:33:38;;;;;;;40.92;25.95;;;;;;;;;;6095971;23;19998;-80
2023/12/03 07:36:03;;;;;;;41.45;27.85;;;;;;;;;;6095186;23;20044;-80
2023/12/03 07:38:28;;;;;;;31.88;21.27;;;;;;;;;;6121045;23;19998;-80
2023/12/03 07:40:54;;;;;;;28.55;19.80;;;;;;;;;;6095302;23;20017;-80
2023/12/03 07:43:19;;;;;;;38.42;22.30;;;;;;;;;;6095697;23;20105;-79
2023/12/03 07:49:16;;;;;;;24.02;17.08;;;;;;;;;;6116955;23;20089;-79
2023/12/03 07:51:44;;;;;;;17.67;14.27;;;;;;;;;;6119748;23;20084;-82
2023/12/03 07:54:10;;;;;;;20.92;15.38;;;;;;;;;;6095151;23;20005;-78
2023/12/03 07:56:36;;;;;;;20.77;14.77;;;;;;;;;;6094732;23;20001;-79
2023/12/03 07:59:01;;;;;;;18.38;14.95;;;;;;;;;;6092138;23;20017;-81
2023/12/03 08:01:28;;;;;;;15.10;11.35;;;;;;;;;;6092184;23;20010;-84
2023/12/03 08:03:53;;;;;;;13.60;10.23;;;;;;;;;;6092769;23;20001;-82
2023/12/03 08:06:18;;;;;;;21.58;14.43;;;;;;;;;;6118252;23;20009;-82
2023/12/03 08:08:44;;;;;;;21.35;14.68;;;;;;;;;;6092206;23;20048;-82
2023/12/03 08:11:10;;;;;;;15.05;11.73;;;;;;;;;;6092573;23;20045;-82
2023/12/03 08:13:35;;;;;;;20.27;14.10;;;;;;;;;;6092047;23;20025;-83
2023/12/03 08:16:02;;;;;;;28.88;19.10;;;;;;;;;;6092413;23;20025;-82
2023/12/03 08:18:27;;;;;;;28.70;19.77;;;;;;;;;;6092131;23;20021;-84
2023/12/03 08:20:52;;;;;;;28.30;18.15;;;;;;;;;;6092021;23;20039;-83
2023/12/03 08:23:17;;;;;;;51.75;28.73;;;;;;;;;;6092543;23;20422;-83
2023/12/03 08:25:43;;;;;;;30.75;20.13;;;;;;;;;;6118881;23;20005;-81
2023/12/03 08:28:08;;;;;;;27.67;19.00;;;;;;;;;;6118888;23;20516;-82
2023/12/03 08:30:34;;;;;;;50.95;33.55;;;;;;;;;;6118671;23;20009;-84
2023/12/03 08:32:59;;;;;;;26.48;17.45;;;;;;;;;;6068757;23;20017;-84
2023/12/03 08:35:24;;;;;;;61.92;35.63;;;;;;;;;;6092207;23;20057;-82
2023/12/03 08:37:49;;;;;;;26.58;17.25;;;;;;;;;;6093014;23;20334;-83
2023/12/03 08:40:15;;;;;;;47.50;33.97;;;;;;;;;;6094077;23;20097;-82
2023/12/03 08:42:44;;;;;;;27.92;17.63;;;;;;;;;;6094542;23;20461;-83
2023/12/03 08:45:09;;;;;;;46.72;30.85;;;;;;;;;;6093354;23;20008;-83
2023/12/03 08:47:36;;;;;;;27.73;18.83;;;;;;;;;;6093870;23;20092;-83
2023/12/03 08:50:01;;;;;;;39.58;24.35;;;;;;;;;;6093541;23;20005;-84
2023/12/03 08:52:26;;;;;;;45.72;30.63;;;;;;;;;;6092561;23;20323;-83
2023/12/03 08:54:52;;;;;;;35.17;25.95;;;;;;;;;;6093706;23;20012;-83
2023/12/03 08:57:17;;;;;;;24.42;16.27;;;;;;;;;;6118144;23;20057;-84
2023/12/03 08:59:42;;;;;;;47.70;31.00;;;;;;;;;;6092164;23;20441;-84
2023/12/03 09:02:07;;;;;;;52.08;35.95;;;;;;;;;;6118281;23;20054;-83
2023/12/03 09:04:36;;;;;;;44.65;26.58;;;;;;;;;;6092042;23;20002;-84
2023/12/03 09:07:01;;;;;;;198.97;105.50;;;;;;;;;;6092916;23;20057;-83
2023/12/03 09:09:27;;;;;;;45.10;28.30;;;;;;;;;;6092404;23;20232;-83
2023/12/03 09:11:52;;;;;;;165.98;93.32;;;;;;;;;;6092990;23;20132;-82
2023/12/03 09:14:18;;;;;;;199.07;89.20;;;;;;;;;;6118313;23;20045;-82
2023/12/03 09:16:43;;;;;;;142.02;65.80;;;;;;;;;;6092898;23;20021;-83
2023/12/03 09:19:08;;;;;;;144.73;70.40;;;;;;;;;;6092198;23;20402;-84
2023/12/03 09:21:34;;;;;;;217.18;107.50;;;;;;;;;;6118222;23;20005;-83
2023/12/03 09:23:59;;;;;;;65.50;40.50;;;;;;;;;;6092229;23;20009;-83
2023/12/03 09:26:24;;;;;;;49.95;29.58;;;;;;;;;;6093044;23;20013;-84
2023/12/03 09:28:50;;;;;;;27.95;19.48;;;;;;;;;;6117583;23;20010;-83
2023/12/03 09:31:15;;;;;;;38.58;25.02;;;;;;;;;;6117774;23;20016;-84
2023/12/03 09:33:40;;;;;;;34.78;24.52;;;;;;;;;;6091672;23;19998;-83
2023/12/03 09:36:06;;;;;;;19.33;14.05;;;;;;;;;;6091806;23;20069;-83
2023/12/03 09:38:31;;;;;;;20.98;14.07;;;;;;;;;;6093117;23;20014;-83
2023/12/03 09:40:59;;;;;;;32.35;20.63;;;;;;;;;;6089747;23;20018;-83
2023/12/03 09:43:26;;;;;;;21.20;15.00;;;;;;;;;;6091173;23;20009;-83
2023/12/03 09:45:54;;;;;;;26.63;19.48;;;;;;;;;;6090582;23;20077;-83
2023/12/03 09:48:21;;;;;;;31.48;22.48;;;;;;;;;;6091517;23;20404;-84
2023/12/03 09:50:49;;;;;;;46.30;28.95;;;;;;;;;;6092961;23;20438;-83
2023/12/03 09:53:15;;;;;;;32.53;20.17;;;;;;;;;;6087771;23;20006;-84
2023/12/03 09:55:43;;;;;;;46.03;31.85;;;;;;;;;;6090362;23;20002;-83
2023/12/03 09:58:09;;;;;;;39.20;25.52;;;;;;;;;;6091040;23;20005;-84
2023/12/03 10:00:37;;;;;;;39.72;23.20;;;;;;;;;;6091236;23;20439;-84
2023/12/03 10:03:04;;;;;;;30.27;21.25;;;;;;;;;;6092484;23;20002;-83
2023/12/03 10:05:30;;;;;;;45.33;30.77;;;;;;;;;;6090484;23;20013;-83
2023/12/03 10:07:55;;;;;;;22.58;17.33;;;;;;;;;;6090480;23;20025;-84
2023/12/03 10:10:21;;;;;;;40.15;25.42;;;;;;;;;;6090469;23;20010;-83
2023/12/03 10:12:47;;;;;;;24.48;16.85;;;;;;;;;;6091126;23;20006;-84
2023/12/03 10:15:14;;;;;;;31.08;21.13;;;;;;;;;;6092155;23;20005;-84
2023/12/03 10:17:40;;;;;;;37.55;31.95;;;;;;;;;;6090901;23;20002;-84
2023/12/03 10:20:27;;;;;;;28.40;21.30;;;;;;;;;;6090504;23;20086;-83
2023/12/03 10:22:57;;;;;;;27.63;19.90;;;;;;;;;;6091128;23;20003;-82
2023/12/03 10:25:33;;;;;;;19.30;15.18;;;;;;;;;;6090852;23;20356;-83
2023/12/03 10:28:00;;;;;;;19.83;15.38;;;;;;;;;;6092284;23;20054;-84
2023/12/03 10:30:27;;;;;;;19.17;14.73;;;;;;;;;;6092024;23;20442;-83
2023/12/03 10:32:55;;;;;;;27.77;19.52;;;;;;;;;;6089543;23;20009;-83
2023/12/03 10:35:22;;;;;;;36.67;22.97;;;;;;;;;;6092154;23;20014;-83
2023/12/03 10:37:51;;;;;;;33.97;23.38;;;;;;;;;;6070689;23;20240;-81
2023/12/03 10:40:19;;;;;;;31.60;27.30;;;;;;;;;;6095706;23;20038;-85
2023/12/03 10:42:46;;;;;;;22.20;17.38;;;;;;;;;;6121518;23;20085;-82
2023/12/03 10:45:14;;;;;;;16.38;11.95;;;;;;;;;;6120402;23;20026;-82
2023/12/03 10:47:40;;;;;;;28.40;23.05;;;;;;;;;;6093653;23;19998;-83
2023/12/03 10:50:07;;;;;;;13.50;10.23;;;;;;;;;;6072499;23;20037;-83
2023/12/03 10:52:38;;;;;;;27.02;19.73;;;;;;;;;;6123333;23;19997;-83
2023/12/03 10:55:04;;;;;;;44.05;23.65;;;;;;;;;;6074149;23;20069;-83
2023/12/03 10:57:32;;;;;;;17.15;13.68;;;;;;;;;;6088284;23;20006;-84
2023/12/03 11:00:08;;;;;;;14.10;10.23;;;;;;;;;;6096698;23;20458;-83
2023/12/03 11:02:39;;;;;;;10.43;8.68;;;;;;;;;;6096599;23;20009;-82
2023/12/03 11:05:06;;;;;;;14.70;10.07;;;;;;;;;;6033559;23;19999;-84
2023/12/03 11:07:33;;;;;;;23.95;14.85;;;;;;;;;;6034573;23;20031;-83
2023/12/03 11:10:00;;;;;;;12.90;11.43;;;;;;;;;;6033729;23;20004;-83
2023/12/03 11:12:26;;;;;;;14.88;10.98;;;;;;;;;;6033067;23;20011;-84
2023/12/03 11:14:52;;;;;;;9.98;7.88;;;;;;;;;;6033633;23;20522;-83
2023/12/03 11:17:40;;;;;;;11.32;8.88;;;;;;;;;;6039751;23;20510;-82
2023/12/03 11:20:09;;;;;;;10.52;8.57;;;;;;;;;;6008838;23;19999;-83
2023/12/03 11:22:47;;;;;;;19.15;16.85;;;;;;;;;;6029701;23;20010;-83
2023/12/03 11:25:18;;;;;;;13.93;12.25;;;;;;;;;;6030116;23;20051;-85
2023/12/03 11:27:46;;;;;;;10.98;8.75;;;;;;;;;;6029774;23;20154;-83
2023/12/03 11:30:13;;;;;;;10.25;9.00;;;;;;;;;;6030919;23;20110;-85
2023/12/03 11:32:40;;;;;;;11.95;8.63;;;;;;;;;;6030052;23;20007;-83
2023/12/03 11:35:07;;;;;;;15.10;12.52;;;;;;;;;;6036543;23;20042;-84
2023/12/03 11:37:34;;;;;;;13.32;11.57;;;;;;;;;;6091862;23;20060;-83
2023/12/03 11:40:09;;;;;;;12.48;10.82;;;;;;;;;;6119860;23;19998;-84
2023/12/03 11:42:42;;;;;;;13.63;11.80;;;;;;;;;;6062314;23;20019;-83
2023/12/03 11:45:27;;;;;;;18.38;16.50;;;;;;;;;;6055566;23;20013;-83
2023/12/03 11:48:11;;;;;;;24.10;21.50;;;;;;;;;;6063762;23;19995;-86
2023/12/03 11:50:47;;;;;;;12.95;10.40;;;;;;;;;;6067906;23;20003;-83
2023/12/03 11:53:15;;;;;;;23.48;16.23;;;;;;;;;;6073847;23;20043;-83
2023/12/03 11:55:45;;;;;;;13.50;10.20;;;;;;;;;;6047270;23;20007;-85
2023/12/03 11:58:11;;;;;;;16.85;11.23;;;;;;;;;;6070897;23;20009;-83
2023/12/03 12:00:39;;;;;;;13.85;9.82;;;;;;;;;;6062590;23;20002;-83
2023/12/03 12:03:07;;;;;;;8.93;7.68;;;;;;;;;;6040951;23;20019;-83
2023/12/03 12:05:33;;;;;;;16.58;12.40;;;;;;;;;;6064070;23;20343;-82
2023/12/03 12:08:03;;;;;;;14.18;9.32;;;;;;;;;;6061854;23;20011;-83
2023/12/03 12:10:31;;;;;;;41.83;19.77;;;;;;;;;;6062315;23;20007;-84
2023/12/03 12:12:58;;;;;;;13.18;9.43;;;;;;;;;;6062426;23;20049;-84
2023/12/03 12:15:25;;;;;;;11.75;8.65;;;;;;;;;;6063153;23;20042;-83
2023/12/03 12:17:52;;;;;;;18.73;11.55;;;;;;;;;;6038542;23;20022;-82
2023/12/03 12:20:25;;;;;;;16.25;10.75;;;;;;;;;;6063599;23;20034;-83
2023/12/03 12:22:52;;;;;;;33.50;15.00;;;;;;;;;;6061907;23;20010;-83
2023/12/03 12:25:19;;;;;;;11.65;7.43;;;;;;;;;;6063007;23;20007;-83
2023/12/03 12:27:46;;;;;;;10.07;6.65;;;;;;;;;;6060851;23;20109;-83
2023/12/03 12:30:14;;;;;;;15.00;6.80;;;;;;;;;;6037829;23;20097;-85
2023/12/03 12:32:40;;;;;;;38.20;18.13;;;;;;;;;;6055397;23;20026;-83
2023/12/03 12:35:08;;;;;;;20.23;11.65;;;;;;;;;;6062402;23;20243;-83
2023/12/03 12:37:35;;;;;;;27.65;12.85;;;;;;;;;;6054282;23;20085;-83
2023/12/03 12:40:08;;;;;;;53.03;18.92;;;;;;;;;;6062263;23;20006;-83
2023/12/03 12:42:34;;;;;;;22.35;11.15;;;;;;;;;;6062268;23;20015;-83
2023/12/03 12:45:02;;;;;;;36.67;15.20;;;;;;;;;;6062836;23;20002;-84
2023/12/03 12:47:39;;;;;;;18.23;9.65;;;;;;;;;;6061365;23;19999;-83
2023/12/03 12:50:07;;;;;;;32.22;13.85;;;;;;;;;;6062484;23;20003;-85
2023/12/03 12:52:34;;;;;;;58.25;20.17;;;;;;;;;;6054995;23;20003;-85
2023/12/03 12:55:00;;;;;;;42.78;17.65;;;;;;;;;;6062738;23;20003;-84
2023/12/03 12:57:27;;;;;;;106.63;33.08;;;;;;;;;;6064191;23;20436;-83
2023/12/03 12:59:54;;;;;;;28.08;14.95;;;;;;;;;;6061820;23;20007;-83
2023/12/03 13:02:24;;;;;;;31.30;16.38;;;;;;;;;;6061612;23;20003;-84
2023/12/03 13:04:50;;;;;;;70.85;27.58;;;;;;;;;;6060223;23;20037;-83
2023/12/03 13:07:16;;;;;;;24.90;15.57;;;;;;;;;;6059538;23;20086;-83
2023/12/03 13:09:44;;;;;;;49.78;36.25;;;;;;;;;;6061226;23;20586;-85
2023/12/03 13:12:10;;;;;;;131.77;55.78;;;;;;;;;;6051965;23;20427;-85
2023/12/03 13:14:38;;;;;;;38.45;30.15;;;;;;;;;;6053517;23;20006;-86
2023/12/03 13:17:04;;;;;;;61.70;36.90;;;;;;;;;;6060335;23;20003;-83
2023/12/03 13:19:30;;;;;;;199.10;65.82;;;;;;;;;;6058258;23;20086;-82
2023/12/03 13:22:00;;;;;;;107.60;61.92;;;;;;;;;;6060622;23;20006;-84
2023/12/03 13:24:26;;;;;;;167.73;88.80;;;;;;;;;;6052205;23;20003;-84
2023/12/03 13:26:51;;;;;;;31.48;28.35;;;;;;;;;;6060620;23;20174;-86
2023/12/03 13:29:17;;;;;;;65.57;54.75;;;;;;;;;;6062940;23;20025;-85
2023/12/03 13:31:43;;;;;;;54.97;38.53;;;;;;;;;;6060358;23;20124;-84
2023/12/03 13:34:10;;;;;;;46.78;27.80;;;;;;;;;;6059446;23;20057;-84
2023/12/03 13:36:36;;;;;;;50.78;36.67;;;;;;;;;;6059938;23;20003;-84
2023/12/03 13:39:03;;;;;;;108.13;45.28;;;;;;;;;;6059682;23;20018;-86
2023/12/03 13:41:30;;;;;;;61.78;30.27;;;;;;;;;;6070733;23;20450;-83
2023/12/03 13:43:55;;;;;;;36.05;23.00;;;;;;;;;;6088345;23;20387;-83
2023/12/03 13:46:21;;;;;;;36.83;22.25;;;;;;;;;;6088727;23;20003;-84
2023/12/03 13:48:47;;;;;;;31.80;20.00;;;;;;;;;;6088233;23;20003;-83
2023/12/03 13:51:13;;;;;;;33.65;25.52;;;;;;;;;;6089555;23;20091;-84
2023/12/03 13:53:39;;;;;;;42.03;27.70;;;;;;;;;;6088056;23;20423;-83
2023/12/03 13:56:09;;;;;;;61.45;33.67;;;;;;;;;;6087882;23;20010;-83
2023/12/03 13:58:35;;;;;;;49.42;27.50;;;;;;;;;;6078747;23;20161;-83
2023/12/03 14:01:01;;;;;;;49.72;28.92;;;;;;;;;;6088960;23;20029;-83
2023/12/03 14:03:29;;;;;;;67.78;36.10;;;;;;;;;;6087972;23;20305;-83
2023/12/03 14:05:55;;;;;;;58.95;31.58;;;;;;;;;;6080601;23;20002;-83
2023/12/03 14:08:21;;;;;;;71.13;38.30;;;;;;;;;;6089641;23;20094;-82
2023/12/03 14:10:48;;;;;;;145.23;69.10;;;;;;;;;;6085638;23;20003;-82
2023/12/03 14:13:16;;;;;;;92.10;42.92;;;;;;;;;;6089399;23;20014;-83
2023/12/03 14:15:42;;;;;;;99.97;41.45;;;;;;;;;;6088084;23;20070;-83